createdAt,value
2023-02-04T00:02:23.371Z,99438.21
2023-02-04T00:04:50.538Z,99446.06
2023-02-04T00:07:18.596Z,99458.67
2023-02-04T00:09:47.370Z,99462.95
2023-02-04T00:12:14.206Z,99476.59
2023-02-04T00:14:41.010Z,99479.99
2023-02-04T00:17:10.594Z,99487.67
2023-02-04T00:19:38.168Z,99500.27
2023-02-04T00:22:07.186Z,99503.70
2023-02-04T00:24:34.308Z,99512.39
2023-02-04T00:27:01.189Z,99511.19
2023-02-04T00:29:28.112Z,99518.19
2023-02-04T00:31:55.089Z,99516.98
2023-02-04T00:34:22.168Z,99517.84
2023-02-04T00:36:49.272Z,99524.30
2023-02-04T00:39:17.179Z,99541.86
2023-02-04T00:41:44.163Z,99545.95
2023-02-04T00:44:14.329Z,99560.26
2023-02-04T00:46:41.325Z,99567.08
2023-02-04T00:49:10.647Z,99571.16
2023-02-04T00:51:37.452Z,99578.32
2023-02-04T00:54:05.287Z,99588.50
2023-02-04T00:56:32.061Z,99593.78
2023-02-04T00:58:59.119Z,99609.65
2023-02-04T01:01:26.296Z,99622.08
2023-02-04T01:03:53.067Z,99625.15
2023-02-04T01:06:19.841Z,99629.40
2023-02-04T01:08:46.896Z,99640.33
2023-02-04T01:11:13.709Z,99654.81
2023-02-04T01:13:40.472Z,99657.04
2023-02-04T01:16:07.728Z,99662.02
2023-02-04T01:18:34.603Z,99667.15
2023-02-04T01:21:01.461Z,99672.27
2023-02-04T01:23:28.489Z,99678.41
2023-02-04T01:25:55.326Z,99684.55
2023-02-04T01:28:22.180Z,99694.44
2023-02-04T01:30:49.346Z,99708.42
2023-02-04T01:33:16.159Z,99708.42
2023-02-04T01:35:43.373Z,99720.70
2023-02-04T01:38:10.493Z,99724.63
2023-02-04T01:40:37.519Z,99731.95
2023-02-04T01:43:04.609Z,99741.67
2023-02-04T01:45:34.622Z,99746.61
2023-02-04T01:48:01.560Z,99754.98
2023-02-04T01:50:28.576Z,99769.14
2023-02-04T01:52:55.841Z,99777.66
2023-02-04T01:55:26.553Z,99791.13
2023-02-04T01:57:54.186Z,99794.89
2023-02-04T02:00:26.422Z,99805.98
2023-02-04T02:02:54.668Z,99810.94
2023-02-04T02:05:25.502Z,99818.62
2023-02-04T02:07:55.258Z,99823.23
2023-02-04T02:10:22.944Z,99826.64
2023-02-04T02:12:50.967Z,99832.79
2023-02-04T02:15:18.652Z,99843.72
2023-02-04T02:17:46.293Z,99856.71
2023-02-04T02:20:17.325Z,99867.27
2023-02-04T02:22:52.708Z,99881.27
2023-02-04T02:25:19.812Z,99893.89
2023-02-04T02:27:47.013Z,99907.01
2023-02-04T02:30:17.728Z,99916.57
2023-02-04T02:32:45.360Z,99924.60
2023-02-04T02:35:13.066Z,99936.20
2023-02-04T02:37:39.932Z,99943.35
2023-02-04T02:40:08.338Z,99954.61
2023-02-04T02:42:35.586Z,99961.07
2023-02-04T02:45:04.453Z,99969.20
2023-02-04T02:47:31.350Z,99982.50
2023-02-04T02:49:59.312Z,99987.61
2023-02-04T02:52:26.213Z,99999.73
2023-02-04T02:54:53.829Z,100010.29
2023-02-04T02:57:24.162Z,100019.33
2023-02-04T02:59:51.516Z,100027.35
2023-02-04T03:02:22.845Z,100029.73
2023-02-04T03:04:54.893Z,100037.41
2023-02-04T03:07:24.492Z,100045.14
2023-02-04T03:09:53.698Z,100048.90
2023-02-04T03:12:21.056Z,100057.60
2023-02-04T03:14:48.517Z,100068.52
2023-02-04T03:17:15.363Z,100072.77
2023-02-04T03:19:42.562Z,100082.11
2023-02-04T03:22:10.108Z,100088.88
2023-02-04T03:24:37.541Z,100093.34
2023-02-04T03:27:05.041Z,100110.91
2023-02-04T03:29:31.875Z,100120.11
2023-02-04T03:32:00.217Z,100129.85
2023-02-04T03:34:27.195Z,100145.68
2023-02-04T03:36:54.245Z,100157.10
2023-02-04T03:39:20.995Z,100167.16
2023-02-04T03:41:47.766Z,100172.77
2023-02-04T03:44:14.564Z,100179.24
2023-02-04T03:46:41.344Z,100182.96
2023-02-04T03:49:08.189Z,100187.54
2023-02-04T03:51:34.995Z,100197.77
2023-02-04T03:54:01.772Z,100205.58
2023-02-04T03:56:28.929Z,100214.22
2023-02-04T03:58:55.732Z,100222.30
2023-02-04T04:01:22.944Z,100232.80
2023-02-04T04:03:49.732Z,100247.90
2023-02-04T04:06:16.498Z,100259.60
2023-02-04T04:08:43.252Z,100262.08
2023-02-04T04:11:12.586Z,100268.81
2023-02-04T04:13:39.273Z,100276.40
2023-02-04T04:16:07.008Z,100285.52
2023-02-04T04:18:34.734Z,100294.11
2023-02-04T04:21:01.659Z,100298.29
2023-02-04T04:23:28.568Z,100304.18
2023-02-04T04:25:55.359Z,100315.36
2023-02-04T04:28:22.091Z,100327.76
2023-02-04T04:30:48.977Z,100335.54
2023-02-04T04:33:16.130Z,100349.77
2023-02-04T04:35:42.975Z,100355.84
2023-02-04T04:38:09.786Z,100364.52
2023-02-04T04:40:36.924Z,100370.81
2023-02-04T04:43:03.805Z,100376.08
2023-02-04T04:45:30.738Z,100381.84
2023-02-04T04:47:57.575Z,100385.39
2023-02-04T04:50:24.366Z,100394.59
2023-02-04T04:52:51.225Z,100403.29
2023-02-04T04:55:18.385Z,100405.71
2023-02-04T04:57:45.112Z,100410.35
2023-02-04T05:00:19.104Z,100422.66
2023-02-04T05:02:46.039Z,100429.16
2023-02-04T05:05:13.623Z,100435.04
2023-02-04T05:07:40.387Z,100440.20
2023-02-04T05:10:08.102Z,100443.52
2023-02-04T05:12:35.242Z,100456.16
2023-02-04T05:15:02.023Z,100460.63
2023-02-04T05:17:28.968Z,100468.16
2023-02-04T05:19:55.828Z,100475.88
2023-02-04T05:22:22.792Z,100479.00
2023-02-04T05:24:49.677Z,100485.55
2023-02-04T05:27:16.434Z,100498.38
2023-02-04T05:29:43.213Z,100505.38
2023-02-04T05:32:09.983Z,100508.29
2023-02-04T05:34:37.705Z,100515.33
2023-02-04T05:37:05.618Z,100524.73
2023-02-04T05:39:32.376Z,100530.23
2023-02-04T05:41:59.136Z,100543.56
2023-02-04T05:44:27.467Z,100545.80
2023-02-04T05:46:54.477Z,100561.84
2023-02-04T05:49:21.310Z,100566.13
2023-02-04T05:51:48.221Z,100573.96
2023-02-04T05:54:19.596Z,100580.48
2023-02-04T05:56:46.484Z,100592.23
2023-02-04T05:59:13.512Z,100604.36
2023-02-04T06:01:40.330Z,100613.55
2023-02-04T06:04:07.651Z,100624.41
2023-02-04T06:06:34.609Z,100635.29
2023-02-04T06:09:01.409Z,100633.36
2023-02-04T06:11:28.230Z,100648.94
2023-02-04T06:13:55.070Z,100659.98
2023-02-04T06:16:21.973Z,100663.00
2023-02-04T06:18:48.831Z,100671.64
2023-02-04T06:21:16.046Z,100682.63
2023-02-04T06:23:42.909Z,100689.91
2023-02-04T06:26:09.878Z,100696.02
2023-02-04T06:28:37.344Z,100697.56
2023-02-04T06:31:04.730Z,100702.77
2023-02-04T06:33:31.575Z,100713.89
2023-02-04T06:35:58.651Z,100728.79
2023-02-04T06:38:25.919Z,100727.86
2023-02-04T06:40:53.847Z,100738.98
2023-02-04T06:43:21.821Z,100740.08
2023-02-04T06:45:48.651Z,100747.14
2023-02-04T06:48:15.476Z,100754.52
2023-02-04T06:50:42.416Z,100755.84
2023-02-04T06:53:09.226Z,100759.92
2023-02-04T06:55:36.070Z,100773.94
2023-02-04T06:58:03.068Z,100785.59
2023-02-04T07:00:31.151Z,100790.38
2023-02-04T07:02:58.674Z,100795.66
2023-02-04T07:05:25.700Z,100803.71
2023-02-04T07:07:52.481Z,100808.72
2023-02-04T07:10:21.025Z,100815.52
2023-02-04T07:12:48.493Z,100820.55
2023-02-04T07:15:18.276Z,100826.36
2023-02-04T07:17:47.328Z,100825.52
2023-02-04T07:20:15.230Z,100833.80
2023-02-04T07:22:42.561Z,100842.30
2023-02-04T07:25:11.535Z,100844.58
2023-02-04T07:27:38.668Z,100849.94
2023-02-04T07:30:05.941Z,100855.85
2023-02-04T07:32:33.696Z,100862.05
2023-02-04T07:35:00.578Z,100871.55
2023-02-04T07:37:27.645Z,100872.28
2023-02-04T07:39:55.066Z,100876.80
2023-02-04T07:42:22.171Z,100876.09
2023-02-04T07:44:53.050Z,100881.01
2023-02-04T07:47:21.485Z,100882.64
2023-02-04T07:49:48.282Z,100889.26
2023-02-04T07:52:15.181Z,100890.66
2023-02-04T07:54:43.057Z,100894.23
2023-02-04T07:57:10.382Z,100900.80
2023-02-04T07:59:37.307Z,100905.80
2023-02-04T08:02:04.633Z,100911.47
2023-02-04T08:04:31.497Z,100916.65
2023-02-04T08:06:58.521Z,100924.10
2023-02-04T08:09:27.236Z,100927.06
2023-02-04T08:11:54.147Z,100929.34
2023-02-04T08:14:21.255Z,100923.69
2023-02-04T08:16:48.372Z,100923.39
2023-02-04T08:19:19.050Z,100930.81
2023-02-04T08:21:46.844Z,100938.93
2023-02-04T08:24:14.187Z,100945.67
2023-02-04T08:26:41.321Z,100953.60
2023-02-04T08:29:08.417Z,100949.30
2023-02-04T08:31:36.758Z,100955.69
2023-02-04T08:34:03.848Z,100962.39
2023-02-04T08:36:30.785Z,100969.64
2023-02-04T08:38:57.791Z,100975.51
2023-02-04T08:41:24.864Z,100982.02
2023-02-04T08:43:51.775Z,100978.33
2023-02-04T08:46:18.593Z,100979.47
2023-02-04T08:48:45.406Z,100971.88
2023-02-04T08:51:12.258Z,100973.48
2023-02-04T08:53:40.791Z,100969.56
2023-02-04T08:56:08.997Z,100968.08
2023-02-04T08:58:35.942Z,100961.85
2023-02-04T09:01:03.266Z,100958.77
2023-02-04T09:03:30.106Z,100969.16
2023-02-04T09:05:56.978Z,100967.79
2023-02-04T09:08:24.262Z,100976.64
2023-02-04T09:10:51.099Z,100982.31
2023-02-04T09:13:17.950Z,100981.27
2023-02-04T09:15:44.952Z,100983.13
2023-02-04T09:18:17.063Z,100982.56
2023-02-04T09:20:44.455Z,100980.09
2023-02-04T09:23:12.278Z,100979.95
2023-02-04T09:25:39.127Z,100984.55
2023-02-04T09:28:06.963Z,100987.58
2023-02-04T09:30:34.322Z,100991.36
2023-02-04T09:33:01.917Z,100993.60
2023-02-04T09:35:28.955Z,100998.59
2023-02-04T09:37:59.347Z,101005.26
2023-02-04T09:40:34.806Z,101004.50
2023-02-04T09:43:02.035Z,101013.09
2023-02-04T09:45:30.827Z,101018.96
2023-02-04T09:47:59.922Z,101022.00
2023-02-04T09:50:28.709Z,101030.58
2023-02-04T09:52:58.734Z,101029.09
2023-02-04T09:55:29.683Z,101042.74
2023-02-04T09:57:57.029Z,101048.79
2023-02-04T10:00:27.777Z,101044.92
2023-02-04T10:02:55.398Z,101043.04
2023-02-04T10:05:29.219Z,101049.77
2023-02-04T10:07:56.928Z,101058.62
2023-02-04T10:10:27.353Z,101061.02
2023-02-04T10:12:57.374Z,101056.73
2023-02-04T10:15:24.610Z,101050.53
2023-02-04T10:17:55.277Z,101059.66
2023-02-04T10:20:24.995Z,101060.67
2023-02-04T10:22:55.199Z,101062.42
2023-02-04T10:25:23.928Z,101053.23
2023-02-04T10:27:58.105Z,101056.05
2023-02-04T10:30:28.134Z,101067.04
2023-02-04T10:32:55.778Z,101082.45
2023-02-04T10:35:25.129Z,101083.42
2023-02-04T10:38:06.084Z,101084.71
2023-02-04T10:40:34.668Z,101078.39
2023-02-04T10:43:09.168Z,101085.23
2023-02-04T10:45:35.940Z,101090.75
2023-02-04T10:48:02.722Z,101104.66
2023-02-04T10:50:30.859Z,101104.27
2023-02-04T10:53:19.708Z,101113.02
2023-02-04T10:55:47.827Z,101105.41
2023-02-04T10:58:18.061Z,101114.89
2023-02-04T11:00:44.806Z,101110.21
2023-02-04T11:03:16.190Z,101112.42
2023-02-04T11:05:43.024Z,101123.50
2023-02-04T11:08:24.400Z,101119.98
2023-02-04T11:10:56.159Z,101118.04
2023-02-04T11:13:29.099Z,101118.34
2023-02-04T11:16:11.957Z,101117.11
2023-02-04T11:18:50.817Z,101114.51
2023-02-04T11:21:25.387Z,101118.14
2023-02-04T11:24:04.121Z,101117.92
2023-02-04T11:26:37.285Z,101116.83
2023-02-04T11:29:31.238Z,101122.98
2023-02-04T11:32:03.862Z,101123.14
2023-02-04T11:34:47.797Z,101123.61
2023-02-04T11:37:19.704Z,101132.60
2023-02-04T11:39:51.191Z,101129.75
2023-02-04T11:42:21.722Z,101135.49
2023-02-04T11:44:56.905Z,101135.55
2023-02-04T11:47:26.666Z,101132.22
2023-02-04T11:49:59.929Z,101130.73
2023-02-04T11:52:26.893Z,101132.61
2023-02-04T11:54:58.997Z,101135.98
2023-02-04T11:57:26.208Z,101139.31
2023-02-04T11:59:53.269Z,101139.63
2023-02-04T12:02:22.009Z,101144.05
2023-02-04T12:04:57.653Z,101139.44
2023-02-04T12:07:31.848Z,101143.52
2023-02-04T12:09:59.443Z,101131.00
2023-02-04T12:12:31.395Z,101142.08
2023-02-04T12:15:06.228Z,101146.30
2023-02-04T12:17:33.395Z,101147.48
2023-02-04T12:20:00.354Z,101143.80
2023-02-04T12:22:27.530Z,101143.50
2023-02-04T12:24:54.500Z,101146.05
2023-02-04T12:27:23.253Z,101147.65
2023-02-04T12:29:50.485Z,101152.98
2023-02-04T12:32:17.462Z,101148.89
2023-02-04T12:34:46.456Z,101157.86
2023-02-04T12:37:13.567Z,101164.55
2023-02-04T12:39:40.917Z,101170.07
2023-02-04T12:42:08.611Z,101175.22
2023-02-04T12:44:36.366Z,101175.59
2023-02-04T12:47:03.908Z,101181.52
2023-02-04T12:49:30.872Z,101184.73
2023-02-04T12:52:02.230Z,101184.16
2023-02-04T12:54:29.884Z,101179.25
2023-02-04T12:56:58.302Z,101178.94
2023-02-04T12:59:25.561Z,101180.91
2023-02-04T13:01:53.075Z,101181.80
2023-02-04T13:04:20.315Z,101183.39
2023-02-04T13:06:47.191Z,101183.95
2023-02-04T13:09:17.148Z,101190.70
2023-02-04T13:11:44.182Z,101192.29
2023-02-04T13:14:11.098Z,101196.80
2023-02-04T13:16:38.057Z,101192.11
2023-02-04T13:19:06.060Z,101203.36
2023-02-04T13:21:32.963Z,101201.89
2023-02-04T13:24:00.865Z,101205.58
2023-02-04T13:26:28.255Z,101214.46
2023-02-04T13:28:55.138Z,101217.79
2023-02-04T13:31:22.327Z,101218.96
2023-02-04T13:33:49.284Z,101221.20
2023-02-04T13:36:16.427Z,101228.60
2023-02-04T13:38:43.567Z,101225.48
2023-02-04T13:41:10.698Z,101227.54
2023-02-04T13:43:37.694Z,101230.29
2023-02-04T13:46:06.329Z,101234.52
2023-02-04T13:48:35.179Z,101243.06
2023-02-04T13:51:03.291Z,101253.27
2023-02-04T13:53:31.206Z,101262.55
2023-02-04T13:55:58.713Z,101267.07
2023-02-04T13:58:25.742Z,101271.32
2023-02-04T14:00:57.484Z,101271.52
2023-02-04T14:03:26.303Z,101277.29
2023-02-04T14:05:53.689Z,101275.74
2023-02-04T14:08:20.901Z,101284.27
2023-02-04T14:10:48.230Z,101289.50
2023-02-04T14:13:15.464Z,101286.21
2023-02-04T14:15:42.617Z,101289.65
2023-02-04T14:18:10.298Z,101290.68
2023-02-04T14:20:37.152Z,101288.88
2023-02-04T14:23:05.124Z,101289.27
2023-02-04T14:25:32.232Z,101290.85
2023-02-04T14:28:00.294Z,101289.98
2023-02-04T14:30:29.592Z,101290.14
2023-02-04T14:32:57.640Z,101292.64
2023-02-04T14:35:26.136Z,101293.45
2023-02-04T14:37:53.194Z,101297.94
2023-02-04T14:40:21.413Z,101299.21
2023-02-04T14:42:48.459Z,101299.63
2023-02-04T14:45:17.231Z,101303.50
2023-02-04T14:47:44.793Z,101304.66
2023-02-04T14:50:15.596Z,101312.08
2023-02-04T14:52:43.561Z,101308.80
2023-02-04T14:55:14.779Z,101311.47
2023-02-04T14:57:42.106Z,101314.36
2023-02-04T15:00:11.304Z,101321.55
2023-02-04T15:02:39.338Z,101326.36
2023-02-04T15:05:06.797Z,101329.47
2023-02-04T15:07:33.758Z,101330.70
2023-02-04T15:10:00.642Z,101334.52
2023-02-04T15:12:27.725Z,101337.63
2023-02-04T15:14:54.636Z,101337.73
2023-02-04T15:17:21.428Z,101343.91
2023-02-04T15:19:48.382Z,101345.91
2023-02-04T15:22:15.985Z,101353.55
2023-02-04T15:24:43.102Z,101348.59
2023-02-04T15:27:09.935Z,101350.91
2023-02-04T15:29:37.557Z,101357.34
2023-02-04T15:32:04.610Z,101361.55
2023-02-04T15:34:31.742Z,101363.48
2023-02-04T15:36:58.521Z,101368.49
2023-02-04T15:39:25.392Z,101372.20
2023-02-04T15:41:52.408Z,101376.23
2023-02-04T15:44:21.565Z,101377.84
2023-02-04T15:46:49.846Z,101382.14
2023-02-04T15:49:17.011Z,101381.50
2023-02-04T15:51:43.794Z,101382.61
2023-02-04T15:54:10.897Z,101383.79
2023-02-04T15:56:39.226Z,101390.38
2023-02-04T15:59:06.182Z,101390.27
2023-02-04T16:01:33.113Z,101393.11
2023-02-04T16:04:00.889Z,101397.08
2023-02-04T16:06:27.958Z,101397.57
2023-02-04T16:08:55.135Z,101405.34
2023-02-04T16:11:22.188Z,101413.08
2023-02-04T16:13:49.024Z,101418.83
2023-02-04T16:16:16.291Z,101422.34
2023-02-04T16:18:43.287Z,101424.67
2023-02-04T16:21:10.076Z,101426.66
2023-02-04T16:23:36.937Z,101426.54
2023-02-04T16:26:03.804Z,101426.48
2023-02-04T16:28:30.656Z,101430.80
2023-02-04T16:30:57.633Z,101431.67
2023-02-04T16:33:25.628Z,101432.71
2023-02-04T16:36:03.953Z,101433.27
2023-02-04T16:38:31.961Z,101432.63
2023-02-04T16:40:58.936Z,101443.45
2023-02-04T16:43:26.183Z,101443.26
2023-02-04T16:45:53.500Z,101440.79
2023-02-04T16:48:20.334Z,101444.36
2023-02-04T16:50:47.854Z,101449.14
2023-02-04T16:53:16.284Z,101449.80
2023-02-04T16:55:43.537Z,101460.45
2023-02-04T16:58:10.886Z,101462.04
2023-02-04T17:00:38.822Z,101468.09
2023-02-04T17:03:07.162Z,101470.77
2023-02-04T17:05:34.588Z,101473.77
2023-02-04T17:08:01.636Z,101473.99
2023-02-04T17:10:42.589Z,101477.13
2023-02-04T17:13:09.768Z,101477.93
2023-02-04T17:15:36.614Z,101481.12
2023-02-04T17:18:03.850Z,101483.64
2023-02-04T17:20:30.738Z,101483.21
2023-02-04T17:22:57.541Z,101486.52
2023-02-04T17:25:25.090Z,101487.17
2023-02-04T17:27:53.197Z,101492.90
2023-02-04T17:30:22.389Z,101495.77
2023-02-04T17:32:49.203Z,101504.08
2023-02-04T17:35:17.553Z,101505.53
2023-02-04T17:37:44.385Z,101503.77
2023-02-04T17:40:13.843Z,101509.98
2023-02-04T17:42:41.136Z,101511.17
2023-02-04T17:45:10.554Z,101509.06
2023-02-04T17:47:37.319Z,101515.84
2023-02-04T17:50:05.762Z,101515.25
2023-02-04T17:52:33.521Z,101523.60
2023-02-04T17:55:00.643Z,101526.84
2023-02-04T17:57:27.772Z,101533.02
2023-02-04T17:59:54.748Z,101537.70
2023-02-04T18:02:30.508Z,101540.81
2023-02-04T18:05:01.658Z,101538.68
2023-02-04T18:07:28.616Z,101543.08
2023-02-04T18:10:02.177Z,101546.59
2023-02-04T18:12:29.702Z,101548.36
2023-02-04T18:14:57.120Z,101549.55
2023-02-04T18:17:25.163Z,101548.70
2023-02-04T18:19:52.472Z,101548.38
2023-02-04T18:22:20.758Z,101550.73
2023-02-04T18:24:48.992Z,101557.52
2023-02-04T18:27:19.978Z,101556.30
2023-02-04T18:29:49.587Z,101556.86
2023-02-04T18:32:21.186Z,101555.93
2023-02-04T18:34:50.152Z,101560.79
2023-02-04T18:37:28.156Z,101561.01
2023-02-04T18:39:58.063Z,101564.82
2023-02-04T18:42:28.004Z,101568.54
2023-02-04T18:44:56.833Z,101571.27
2023-02-04T18:47:35.882Z,101572.70
2023-02-04T18:50:17.364Z,101574.98
2023-02-04T18:52:45.840Z,101583.73
2023-02-04T18:55:28.764Z,101586.83
2023-02-04T18:57:55.646Z,101587.45
2023-02-04T19:00:30.900Z,101583.14
2023-02-04T19:03:09.756Z,101593.27
2023-02-04T19:05:38.969Z,101598.12
2023-02-04T19:08:22.987Z,101593.69
2023-02-04T19:10:51.467Z,101599.80
2023-02-04T19:13:22.274Z,101600.55
2023-02-04T19:15:57.057Z,101599.54
2023-02-04T19:18:26.822Z,101602.60
2023-02-04T19:20:54.672Z,101598.09
2023-02-04T19:23:24.414Z,101601.11
2023-02-04T19:25:52.499Z,101603.70
2023-02-04T19:28:37.307Z,101611.02
2023-02-04T19:31:05.851Z,101617.48
2023-02-04T19:33:37.926Z,101621.02
2023-02-04T19:36:21.574Z,101622.05
2023-02-04T19:38:53.187Z,101624.42
2023-02-04T19:41:29.897Z,101621.45
2023-02-04T19:44:09.851Z,101622.81
2023-02-04T19:46:37.943Z,101630.61
2023-02-04T19:49:17.708Z,101632.44
2023-02-04T19:51:50.152Z,101632.45
2023-02-04T19:54:23.234Z,101635.21
2023-02-04T19:56:50.070Z,101634.75
2023-02-04T19:59:28.769Z,101635.06
2023-02-04T20:02:03.701Z,101635.84
2023-02-04T20:04:36.833Z,101642.21
2023-02-04T20:07:03.771Z,101641.52
2023-02-04T20:09:35.120Z,101640.50
2023-02-04T20:12:06.402Z,101644.58
2023-02-04T20:14:52.060Z,101647.80
2023-02-04T20:17:39.087Z,101657.25
2023-02-04T20:20:16.165Z,101663.63
2023-02-04T20:22:48.008Z,101661.01
2023-02-04T20:25:42.068Z,101666.80
2023-02-04T20:28:38.464Z,101663.66
2023-02-04T20:31:24.928Z,101664.62
2023-02-04T20:33:54.344Z,101664.35
2023-02-04T20:36:43.742Z,101667.92
2023-02-04T20:39:35.164Z,101670.58
2023-02-04T20:42:21.773Z,101671.52
2023-02-04T20:44:49.515Z,101683.88
2023-02-04T20:47:20.813Z,101689.13
2023-02-04T20:49:55.232Z,101693.08
2023-02-04T20:52:57.367Z,101698.46
2023-02-04T20:55:27.444Z,101702.10
2023-02-04T20:57:55.253Z,101703.96
2023-02-04T21:00:30.358Z,101706.36
2023-02-04T21:02:58.936Z,101709.73
2023-02-04T21:05:26.107Z,101713.42
2023-02-04T21:07:56.403Z,101719.04
2023-02-04T21:10:23.153Z,101720.54
2023-02-04T21:12:51.869Z,101725.21
2023-02-04T21:15:18.790Z,101724.27
2023-02-04T21:17:45.585Z,101726.56
2023-02-04T21:20:13.856Z,101732.79
2023-02-04T21:22:40.739Z,101735.27
2023-02-04T21:25:09.163Z,101741.27
2023-02-04T21:27:36.019Z,101733.40
2023-02-04T21:30:03.138Z,101735.91
2023-02-04T21:32:29.954Z,101738.43
2023-02-04T21:34:57.012Z,101737.39
2023-02-04T21:37:24.317Z,101736.67
2023-02-04T21:39:51.122Z,101741.34
2023-02-04T21:42:18.115Z,101742.86
2023-02-04T21:44:45.061Z,101752.46
2023-02-04T21:47:11.968Z,101757.16
2023-02-04T21:49:41.339Z,101762.98
2023-02-04T21:52:10.452Z,101763.86
2023-02-04T21:54:37.723Z,101762.58
2023-02-04T21:57:05.364Z,101767.09
2023-02-04T21:59:32.397Z,101776.73
2023-02-04T22:01:59.468Z,101786.02
2023-02-04T22:04:26.360Z,101788.05
2023-02-04T22:06:53.329Z,101789.02
2023-02-04T22:09:20.148Z,101787.29
2023-02-04T22:11:48.676Z,101788.14
2023-02-04T22:14:15.760Z,101785.40
2023-02-04T22:16:42.642Z,101789.98
2023-02-04T22:19:09.463Z,101795.23
2023-02-04T22:21:36.399Z,101795.03
2023-02-04T22:24:03.293Z,101798.62
2023-02-04T22:26:30.056Z,101796.61
2023-02-04T22:28:57.126Z,101801.61
2023-02-04T22:31:24.484Z,101802.56
2023-02-04T22:33:51.429Z,101804.30
2023-02-04T22:36:18.604Z,101807.21
2023-02-04T22:38:45.720Z,101810.59
2023-02-04T22:41:12.561Z,101814.05
2023-02-04T22:43:39.477Z,101820.78
2023-02-04T22:46:06.668Z,101825.42
2023-02-04T22:48:33.590Z,101821.95
2023-02-04T22:51:03.378Z,101824.02
2023-02-04T22:53:30.139Z,101826.58
2023-02-04T22:55:56.973Z,101827.58
2023-02-04T22:58:23.958Z,101830.27
2023-02-04T23:00:50.984Z,101837.73
2023-02-04T23:03:17.829Z,101840.73
2023-02-04T23:05:45.216Z,101846.90
2023-02-04T23:08:11.990Z,101850.89
2023-02-04T23:10:39.119Z,101852.00
2023-02-04T23:13:07.343Z,101854.45
2023-02-04T23:15:34.402Z,101859.09
2023-02-04T23:18:01.739Z,101855.41
2023-02-04T23:20:28.829Z,101860.24
2023-02-04T23:22:55.850Z,101863.27
2023-02-04T23:25:22.968Z,101866.52
2023-02-04T23:27:50.262Z,101866.79
2023-02-04T23:30:18.037Z,101869.96
2023-02-04T23:32:44.889Z,101870.61
2023-02-04T23:35:11.820Z,101869.20
2023-02-04T23:37:38.647Z,101871.41
2023-02-04T23:40:06.701Z,101877.23
2023-02-04T23:42:34.372Z,101881.43
2023-02-04T23:45:01.221Z,101877.92
2023-02-04T23:47:28.140Z,101878.52
2023-02-04T23:49:55.170Z,101879.52
2023-02-04T23:52:21.930Z,101882.20
2023-02-04T23:54:48.715Z,101886.58
2023-02-04T23:57:15.576Z,101885.55
2023-02-04T23:59:42.622Z,101887.38
